sensor_id;sensor_type;location;lat;lon;timestamp;P1;durP1;ratioP1;P2;durP2;ratioP2
25435;SDS011;13363;52.772;-3.890;2022-10-16T08:25:50;2.27;;;0.63;;
25435;SDS011;13363;52.772;-3.890;2022-10-16T08:28:18;6.33;;;1.10;;
25435;SDS011;13363;52.772;-3.890;2022-10-16T08:30:44;2.03;;;1.00;;
25435;SDS011;13363;52.772;-3.890;2022-10-16T08:33:10;9.03;;;0.90;;
25435;SDS011;13363;52.772;-3.890;2022-10-16T08:35:36;2.10;;;0.97;;
25435;SDS011;13363;52.772;-3.890;2022-10-16T08:38:05;3.53;;;0.80;;
25435;SDS011;13363;52.772;-3.890;2022-10-16T08:40:32;2.83;;;1.00;;
25435;SDS011;13363;52.772;-3.890;2022-10-16T08:45:43;2.77;;;0.90;;
25435;SDS011;13363;52.772;-3.890;2022-10-16T08:48:45;2.47;;;0.70;;
25435;SDS011;13363;52.772;-3.890;2022-10-16T08:51:18;3.20;;;0.93;;
25435;SDS011;13363;52.772;-3.890;2022-10-16T08:53:55;1.90;;;1.17;;
25435;SDS011;13363;52.772;-3.890;2022-10-16T08:56:27;3.50;;;0.83;;
25435;SDS011;13363;52.772;-3.890;2022-10-16T08:58:53;4.70;;;0.90;;
25435;SDS011;13363;52.772;-3.890;2022-10-16T09:01:21;4.33;;;0.97;;
25435;SDS011;13363;52.772;-3.890;2022-10-16T09:07:32;4.33;;;0.97;;
25435;SDS011;13363;52.772;-3.890;2022-10-16T09:12:24;2.53;;;1.50;;
25435;SDS011;13363;52.772;-3.890;2022-10-16T09:17:46;7.40;;;1.00;;
25435;SDS011;13363;52.772;-3.890;2022-10-16T09:26:33;1.70;;;1.10;;
25435;SDS011;13363;52.772;-3.890;2022-10-16T09:28:59;3.40;;;1.17;;
25435;SDS011;13363;52.772;-3.890;2022-10-16T09:31:24;3.67;;;0.98;;
25435;SDS011;13363;52.772;-3.890;2022-10-16T09:33:54;2.80;;;0.90;;
25435;SDS011;13363;52.772;-3.890;2022-10-16T09:36:25;1.73;;;0.80;;
25435;SDS011;13363;52.772;-3.890;2022-10-16T09:39:04;1.95;;;0.73;;
25435;SDS011;13363;52.772;-3.890;2022-10-16T09:41:33;3.70;;;0.73;;
25435;SDS011;13363;52.772;-3.890;2022-10-16T09:44:02;6.63;;;0.90;;
25435;SDS011;13363;52.772;-3.890;2022-10-16T09:46:32;2.30;;;0.80;;
25435;SDS011;13363;52.772;-3.890;2022-10-16T09:49:01;2.70;;;0.83;;
25435;SDS011;13363;52.772;-3.890;2022-10-16T09:51:30;2.17;;;1.30;;
25435;SDS011;13363;52.772;-3.890;2022-10-16T09:57:20;3.77;;;0.90;;
25435;SDS011;13363;52.772;-3.890;2022-10-16T09:59:47;2.27;;;0.87;;
25435;SDS011;13363;52.772;-3.890;2022-10-16T10:02:14;2.80;;;1.00;;
25435;SDS011;13363;52.772;-3.890;2022-10-16T10:07:45;1.83;;;0.67;;
25435;SDS011;13363;52.772;-3.890;2022-10-16T10:10:21;1.40;;;0.67;;
25435;SDS011;13363;52.772;-3.890;2022-10-16T10:12:59;1.27;;;0.60;;
25435;SDS011;13363;52.772;-3.890;2022-10-16T10:15:25;1.67;;;0.93;;
25435;SDS011;13363;52.772;-3.890;2022-10-16T10:17:58;1.90;;;0.67;;
25435;SDS011;13363;52.772;-3.890;2022-10-16T10:20:28;0.60;;;0.50;;
25435;SDS011;13363;52.772;-3.890;2022-10-16T10:22:57;1.20;;;0.90;;
25435;SDS011;13363;52.772;-3.890;2022-10-16T10:31:03;1.77;;;0.90;;
25435;SDS011;13363;52.772;-3.890;2022-10-16T10:33:58;2.70;;;1.00;;
25435;SDS011;13363;52.772;-3.890;2022-10-16T10:36:27;2.43;;;1.17;;
25435;SDS011;13363;52.772;-3.890;2022-10-16T10:38:58;0.70;;;0.70;;
25435;SDS011;13363;52.772;-3.890;2022-10-16T11:06:24;5.37;;;0.87;;
25435;SDS011;13363;52.772;-3.890;2022-10-16T11:11:49;0.93;;;0.70;;
25435;SDS011;13363;52.772;-3.890;2022-10-16T11:14:25;2.50;;;0.97;;
25435;SDS011;13363;52.772;-3.890;2022-10-16T11:17:07;3.33;;;0.83;;
25435;SDS011;13363;52.772;-3.890;2022-10-16T11:19:49;3.30;;;1.00;;
25435;SDS011;13363;52.772;-3.890;2022-10-16T11:22:22;2.30;;;1.10;;
25435;SDS011;13363;52.772;-3.890;2022-10-16T11:24:58;6.03;;;1.20;;
25435;SDS011;13363;52.772;-3.890;2022-10-16T11:27:36;2.80;;;0.77;;
25435;SDS011;13363;52.772;-3.890;2022-10-16T11:38:22;1.03;;;0.60;;
25435;SDS011;13363;52.772;-3.890;2022-10-16T11:41:42;2.97;;;0.90;;
25435;SDS011;13363;52.772;-3.890;2022-10-16T11:49:53;7.07;;;1.17;;
25435;SDS011;13363;52.772;-3.890;2022-10-16T11:55:02;1.97;;;0.80;;
25435;SDS011;13363;52.772;-3.890;2022-10-16T11:57:54;2.50;;;1.00;;
25435;SDS011;13363;52.772;-3.890;2022-10-16T12:00:33;2.40;;;0.90;;
25435;SDS011;13363;52.772;-3.890;2022-10-16T12:06:06;3.53;;;0.90;;
25435;SDS011;13363;52.772;-3.890;2022-10-16T12:08:49;1.23;;;0.67;;
25435;SDS011;13363;52.772;-3.890;2022-10-16T12:11:24;1.03;;;0.80;;
25435;SDS011;13363;52.772;-3.890;2022-10-16T12:14:05;3.10;;;0.87;;
25435;SDS011;13363;52.772;-3.890;2022-10-16T12:16:50;1.20;;;0.70;;
25435;SDS011;13363;52.772;-3.890;2022-10-16T12:19:18;4.50;;;1.00;;
25435;SDS011;13363;52.772;-3.890;2022-10-16T12:21:45;4.17;;;0.80;;
25435;SDS011;13363;52.772;-3.890;2022-10-16T12:24:34;4.33;;;0.70;;
25435;SDS011;13363;52.772;-3.890;2022-10-16T12:26:59;1.70;;;0.53;;
25435;SDS011;13363;52.772;-3.890;2022-10-16T12:32:00;1.23;;;0.83;;
25435;SDS011;13363;52.772;-3.890;2022-10-16T12:37:11;2.90;;;0.70;;
25435;SDS011;13363;52.772;-3.890;2022-10-16T12:39:52;2.70;;;0.80;;
25435;SDS011;13363;52.772;-3.890;2022-10-16T12:44:51;1.93;;;0.80;;
25435;SDS011;13363;52.772;-3.890;2022-10-16T12:49:56;2.07;;;0.80;;
25435;SDS011;13363;52.772;-3.890;2022-10-16T12:52:36;2.40;;;0.80;;
25435;SDS011;13363;52.772;-3.890;2022-10-16T12:55:04;1.57;;;0.87;;
25435;SDS011;13363;52.772;-3.890;2022-10-16T13:00:37;3.37;;;1.13;;
25435;SDS011;13363;52.772;-3.890;2022-10-16T13:19:22;5.13;;;1.47;;
25435;SDS011;13363;52.772;-3.890;2022-10-16T13:21:53;1.80;;;0.80;;
25435;SDS011;13363;52.772;-3.890;2022-10-16T13:29:46;2.43;;;1.00;;
25435;SDS011;13363;52.772;-3.890;2022-10-16T13:32:20;1.70;;;0.73;;
25435;SDS011;13363;52.772;-3.890;2022-10-16T13:40:47;2.30;;;0.80;;
25435;SDS011;13363;52.772;-3.890;2022-10-16T13:43:29;3.07;;;0.80;;
25435;SDS011;13363;52.772;-3.890;2022-10-16T13:46:10;1.37;;;0.57;;
25435;SDS011;13363;52.772;-3.890;2022-10-16T13:48:44;1.53;;;0.83;;
25435;SDS011;13363;52.772;-3.890;2022-10-16T13:51:22;2.20;;;0.90;;
25435;SDS011;13363;52.772;-3.890;2022-10-16T13:53:49;6.03;;;0.90;;
25435;SDS011;13363;52.772;-3.890;2022-10-16T13:56:19;5.93;;;1.53;;
25435;SDS011;13363;52.772;-3.890;2022-10-16T13:58:46;1.10;;;0.87;;
25435;SDS011;13363;52.772;-3.890;2022-10-16T14:01:42;3.70;;;0.80;;
25435;SDS011;13363;52.772;-3.890;2022-10-16T14:04:10;4.73;;;1.00;;
25435;SDS011;13363;52.772;-3.890;2022-10-16T14:10:02;2.33;;;0.80;;
25435;SDS011;13363;52.772;-3.890;2022-10-16T14:12:31;1.90;;;0.83;;
25435;SDS011;13363;52.772;-3.890;2022-10-16T14:14:57;1.80;;;0.63;;
25435;SDS011;13363;52.772;-3.890;2022-10-16T14:19:53;2.13;;;1.23;;
25435;SDS011;13363;52.772;-3.890;2022-10-16T14:25:01;1.70;;;0.93;;
25435;SDS011;13363;52.772;-3.890;2022-10-16T14:27:55;2.93;;;1.00;;
25435;SDS011;13363;52.772;-3.890;2022-10-16T14:30:29;3.67;;;1.20;;
25435;SDS011;13363;52.772;-3.890;2022-10-16T14:32:58;2.30;;;0.97;;
25435;SDS011;13363;52.772;-3.890;2022-10-16T14:35:28;2.63;;;0.90;;
25435;SDS011;13363;52.772;-3.890;2022-10-16T14:37:58;3.70;;;0.97;;
25435;SDS011;13363;52.772;-3.890;2022-10-16T14:40:27;3.33;;;0.80;;
25435;SDS011;13363;52.772;-3.890;2022-10-16T14:42:57;2.97;;;1.53;;
25435;SDS011;13363;52.772;-3.890;2022-10-16T14:45:28;2.30;;;0.80;;
25435;SDS011;13363;52.772;-3.890;2022-10-16T14:47:57;4.07;;;1.10;;
25435;SDS011;13363;52.772;-3.890;2022-10-16T14:50:28;2.90;;;0.90;;
25435;SDS011;13363;52.772;-3.890;2022-10-16T14:52:54;2.10;;;0.80;;
25435;SDS011;13363;52.772;-3.890;2022-10-16T14:55:20;3.87;;;0.93;;
25435;SDS011;13363;52.772;-3.890;2022-10-16T14:57:46;4.80;;;1.50;;
25435;SDS011;13363;52.772;-3.890;2022-10-16T15:00:17;3.23;;;1.13;;
25435;SDS011;13363;52.772;-3.890;2022-10-16T15:02:48;3.07;;;1.27;;
25435;SDS011;13363;52.772;-3.890;2022-10-16T15:05:20;4.37;;;0.90;;
25435;SDS011;13363;52.772;-3.890;2022-10-16T15:07:51;2.03;;;1.37;;
25435;SDS011;13363;52.772;-3.890;2022-10-16T15:10:18;1.07;;;0.57;;
25435;SDS011;13363;52.772;-3.890;2022-10-16T15:12:46;1.20;;;1.00;;
25435;SDS011;13363;52.772;-3.890;2022-10-16T15:17:50;3.43;;;0.97;;
25435;SDS011;13363;52.772;-3.890;2022-10-16T15:20:19;3.57;;;1.10;;
25435;SDS011;13363;52.772;-3.890;2022-10-16T15:22:45;2.23;;;0.80;;
25435;SDS011;13363;52.772;-3.890;2022-10-16T15:25:54;2.83;;;1.00;;
25435;SDS011;13363;52.772;-3.890;2022-10-16T15:28:07;1.73;;;0.90;;
25435;SDS011;13363;52.772;-3.890;2022-10-16T15:30:35;2.00;;;0.90;;
25435;SDS011;13363;52.772;-3.890;2022-10-16T15:33:02;4.10;;;0.90;;
25435;SDS011;13363;52.772;-3.890;2022-10-16T15:35:28;2.83;;;1.13;;
25435;SDS011;13363;52.772;-3.890;2022-10-16T15:37:54;5.10;;;1.17;;
25435;SDS011;13363;52.772;-3.890;2022-10-16T15:40:20;3.03;;;0.90;;
25435;SDS011;13363;52.772;-3.890;2022-10-16T15:42:47;2.37;;;1.00;;
25435;SDS011;13363;52.772;-3.890;2022-10-16T15:45:13;2.30;;;1.10;;
25435;SDS011;13363;52.772;-3.890;2022-10-16T15:47:43;2.60;;;0.90;;
25435;SDS011;13363;52.772;-3.890;2022-10-16T15:50:10;2.70;;;1.00;;
25435;SDS011;13363;52.772;-3.890;2022-10-16T15:52:37;1.33;;;1.00;;
25435;SDS011;13363;52.772;-3.890;2022-10-16T15:55:05;2.10;;;1.07;;
25435;SDS011;13363;52.772;-3.890;2022-10-16T15:57:32;2.70;;;1.20;;
25435;SDS011;13363;52.772;-3.890;2022-10-16T15:59:57;1.73;;;0.90;;
25435;SDS011;13363;52.772;-3.890;2022-10-16T16:02:23;2.03;;;1.00;;
25435;SDS011;13363;52.772;-3.890;2022-10-16T16:04:49;2.17;;;0.93;;
25435;SDS011;13363;52.772;-3.890;2022-10-16T16:07:15;3.97;;;1.30;;
25435;SDS011;13363;52.772;-3.890;2022-10-16T16:09:41;3.60;;;1.20;;
25435;SDS011;13363;52.772;-3.890;2022-10-16T16:12:07;2.13;;;1.47;;
25435;SDS011;13363;52.772;-3.890;2022-10-16T16:14:32;3.87;;;1.50;;
25435;SDS011;13363;52.772;-3.890;2022-10-16T16:16:58;2.07;;;1.63;;
25435;SDS011;13363;52.772;-3.890;2022-10-16T16:19:24;2.97;;;1.00;;
25435;SDS011;13363;52.772;-3.890;2022-10-16T16:21:50;4.27;;;1.37;;
25435;SDS011;13363;52.772;-3.890;2022-10-16T16:24:16;6.40;;;1.60;;
25435;SDS011;13363;52.772;-3.890;2022-10-16T16:26:42;2.30;;;1.10;;
25435;SDS011;13363;52.772;-3.890;2022-10-16T16:29:12;3.37;;;1.53;;
25435;SDS011;13363;52.772;-3.890;2022-10-16T16:31:39;3.57;;;1.60;;
25435;SDS011;13363;52.772;-3.890;2022-10-16T16:34:05;5.90;;;1.17;;
25435;SDS011;13363;52.772;-3.890;2022-10-16T16:36:32;3.93;;;1.00;;
25435;SDS011;13363;52.772;-3.890;2022-10-16T16:38:59;4.70;;;1.33;;
25435;SDS011;13363;52.772;-3.890;2022-10-16T16:41:28;4.47;;;1.40;;
25435;SDS011;13363;52.772;-3.890;2022-10-16T16:43:55;3.23;;;1.10;;
25435;SDS011;13363;52.772;-3.890;2022-10-16T16:46:25;3.33;;;1.47;;
25435;SDS011;13363;52.772;-3.890;2022-10-16T16:48:51;4.80;;;1.50;;
25435;SDS011;13363;52.772;-3.890;2022-10-16T16:51:20;4.60;;;1.47;;
25435;SDS011;13363;52.772;-3.890;2022-10-16T16:53:47;4.00;;;1.40;;
25435;SDS011;13363;52.772;-3.890;2022-10-16T16:56:15;1.93;;;1.40;;
25435;SDS011;13363;52.772;-3.890;2022-10-16T16:58:44;3.23;;;1.03;;
25435;SDS011;13363;52.772;-3.890;2022-10-16T17:01:12;2.77;;;1.63;;
25435;SDS011;13363;52.772;-3.890;2022-10-16T17:03:38;3.40;;;1.30;;
25435;SDS011;13363;52.772;-3.890;2022-10-16T17:06:07;3.33;;;1.63;;
25435;SDS011;13363;52.772;-3.890;2022-10-16T17:08:35;2.97;;;1.57;;
25435;SDS011;13363;52.772;-3.890;2022-10-16T17:11:01;3.37;;;1.20;;
25435;SDS011;13363;52.772;-3.890;2022-10-16T17:13:29;7.77;;;2.17;;
25435;SDS011;13363;52.772;-3.890;2022-10-16T17:15:59;3.87;;;1.33;;
25435;SDS011;13363;52.772;-3.890;2022-10-16T17:18:26;5.03;;;1.07;;
25435;SDS011;13363;52.772;-3.890;2022-10-16T17:20:52;4.53;;;1.53;;
25435;SDS011;13363;52.772;-3.890;2022-10-16T17:23:18;3.70;;;1.20;;
25435;SDS011;13363;52.772;-3.890;2022-10-16T17:25:44;3.23;;;1.40;;
25435;SDS011;13363;52.772;-3.890;2022-10-16T17:28:11;8.37;;;1.60;;
25435;SDS011;13363;52.772;-3.890;2022-10-16T17:30:39;2.47;;;1.20;;
25435;SDS011;13363;52.772;-3.890;2022-10-16T17:33:06;3.30;;;1.50;;
25435;SDS011;13363;52.772;-3.890;2022-10-16T17:35:38;9.33;;;1.40;;
25435;SDS011;13363;52.772;-3.890;2022-10-16T17:38:09;6.93;;;1.70;;
25435;SDS011;13363;52.772;-3.890;2022-10-16T17:40:36;3.60;;;1.63;;
25435;SDS011;13363;52.772;-3.890;2022-10-16T17:43:02;6.17;;;1.67;;
25435;SDS011;13363;52.772;-3.890;2022-10-16T17:45:28;7.10;;;1.57;;
25435;SDS011;13363;52.772;-3.890;2022-10-16T17:47:56;5.57;;;2.17;;
25435;SDS011;13363;52.772;-3.890;2022-10-16T17:50:23;10.20;;;1.87;;
25435;SDS011;13363;52.772;-3.890;2022-10-16T17:52:49;2.90;;;1.30;;
25435;SDS011;13363;52.772;-3.890;2022-10-16T17:55:15;4.37;;;1.60;;
25435;SDS011;13363;52.772;-3.890;2022-10-16T17:57:41;7.23;;;1.87;;
25435;SDS011;13363;52.772;-3.890;2022-10-16T18:00:10;5.83;;;1.67;;
25435;SDS011;13363;52.772;-3.890;2022-10-16T18:02:36;5.43;;;1.63;;
25435;SDS011;13363;52.772;-3.890;2022-10-16T18:07:51;4.43;;;1.80;;
25435;SDS011;13363;52.772;-3.890;2022-10-16T18:10:17;3.50;;;1.50;;
25435;SDS011;13363;52.772;-3.890;2022-10-16T18:12:43;3.23;;;1.73;;
25435;SDS011;13363;52.772;-3.890;2022-10-16T18:15:09;5.07;;;1.60;;
25435;SDS011;13363;52.772;-3.890;2022-10-16T18:17:35;3.20;;;1.40;;
25435;SDS011;13363;52.772;-3.890;2022-10-16T18:20:04;3.00;;;1.30;;
25435;SDS011;13363;52.772;-3.890;2022-10-16T18:22:32;10.63;;;1.77;;
25435;SDS011;13363;52.772;-3.890;2022-10-16T18:25:00;7.03;;;1.30;;
25435;SDS011;13363;52.772;-3.890;2022-10-16T18:27:30;5.73;;;1.87;;
25435;SDS011;13363;52.772;-3.890;2022-10-16T18:29:57;4.87;;;1.77;;
25435;SDS011;13363;52.772;-3.890;2022-10-16T18:32:24;3.07;;;1.83;;
25435;SDS011;13363;52.772;-3.890;2022-10-16T18:34:51;5.43;;;1.70;;
25435;SDS011;13363;52.772;-3.890;2022-10-16T18:37:18;3.80;;;1.90;;
25435;SDS011;13363;52.772;-3.890;2022-10-16T18:39:47;3.70;;;1.57;;
25435;SDS011;13363;52.772;-3.890;2022-10-16T18:42:16;3.40;;;1.50;;
25435;SDS011;13363;52.772;-3.890;2022-10-16T18:44:42;3.70;;;1.80;;
25435;SDS011;13363;52.772;-3.890;2022-10-16T18:47:08;4.93;;;1.50;;
25435;SDS011;13363;52.772;-3.890;2022-10-16T18:49:34;4.63;;;1.50;;
25435;SDS011;13363;52.772;-3.890;2022-10-16T18:52:00;6.97;;;1.63;;
25435;SDS011;13363;52.772;-3.890;2022-10-16T18:54:27;3.80;;;1.90;;
25435;SDS011;13363;52.772;-3.890;2022-10-16T18:56:54;4.47;;;1.40;;
25435;SDS011;13363;52.772;-3.890;2022-10-16T18:59:20;4.50;;;1.63;;
25435;SDS011;13363;52.772;-3.890;2022-10-16T19:01:47;7.33;;;1.63;;
25435;SDS011;13363;52.772;-3.890;2022-10-16T19:04:14;5.77;;;1.50;;
25435;SDS011;13363;52.772;-3.890;2022-10-16T19:06:42;7.00;;;1.80;;
25435;SDS011;13363;52.772;-3.890;2022-10-16T19:09:13;5.77;;;1.83;;
25435;SDS011;13363;52.772;-3.890;2022-10-16T19:11:39;7.10;;;1.50;;
25435;SDS011;13363;52.772;-3.890;2022-10-16T19:14:05;5.33;;;1.67;;
25435;SDS011;13363;52.772;-3.890;2022-10-16T19:16:32;5.80;;;2.07;;
25435;SDS011;13363;52.772;-3.890;2022-10-16T19:19:00;8.00;;;1.90;;
25435;SDS011;13363;52.772;-3.890;2022-10-16T19:21:29;5.97;;;2.00;;
25435;SDS011;13363;52.772;-3.890;2022-10-16T19:23:58;9.13;;;2.20;;
25435;SDS011;13363;52.772;-3.890;2022-10-16T19:26:26;8.87;;;2.03;;
25435;SDS011;13363;52.772;-3.890;2022-10-16T19:28:55;7.70;;;1.60;;
25435;SDS011;13363;52.772;-3.890;2022-10-16T19:31:23;5.20;;;1.50;;
25435;SDS011;13363;52.772;-3.890;2022-10-16T19:33:54;5.77;;;2.07;;
25435;SDS011;13363;52.772;-3.890;2022-10-16T19:36:22;4.33;;;1.90;;
25435;SDS011;13363;52.772;-3.890;2022-10-16T19:38:57;5.87;;;2.20;;
25435;SDS011;13363;52.772;-3.890;2022-10-16T19:41:28;19.43;;;2.10;;
25435;SDS011;13363;52.772;-3.890;2022-10-16T19:43:58;8.53;;;2.30;;
25435;SDS011;13363;52.772;-3.890;2022-10-16T19:46:29;7.37;;;1.87;;
25435;SDS011;13363;52.772;-3.890;2022-10-16T19:48:56;6.53;;;1.93;;
25435;SDS011;13363;52.772;-3.890;2022-10-16T19:51:25;6.97;;;2.03;;
25435;SDS011;13363;52.772;-3.890;2022-10-16T19:53:53;4.17;;;1.90;;
25435;SDS011;13363;52.772;-3.890;2022-10-16T19:56:21;5.63;;;1.77;;
25435;SDS011;13363;52.772;-3.890;2022-10-16T19:58:49;11.47;;;2.10;;
25435;SDS011;13363;52.772;-3.890;2022-10-16T20:01:16;3.83;;;1.77;;
25435;SDS011;13363;52.772;-3.890;2022-10-16T20:03:43;4.10;;;1.80;;
25435;SDS011;13363;52.772;-3.890;2022-10-16T20:06:10;5.77;;;2.07;;
25435;SDS011;13363;52.772;-3.890;2022-10-16T20:08:37;4.30;;;1.60;;
25435;SDS011;13363;52.772;-3.890;2022-10-16T20:11:04;4.37;;;1.30;;
25435;SDS011;13363;52.772;-3.890;2022-10-16T20:13:33;2.27;;;1.27;;
25435;SDS011;13363;52.772;-3.890;2022-10-16T20:16:01;1.63;;;1.17;;
25435;SDS011;13363;52.772;-3.890;2022-10-16T20:18:27;4.53;;;1.63;;
25435;SDS011;13363;52.772;-3.890;2022-10-16T20:20:53;1.83;;;1.40;;
25435;SDS011;13363;52.772;-3.890;2022-10-16T20:23:19;7.17;;;1.77;;
25435;SDS011;13363;52.772;-3.890;2022-10-16T20:25:47;3.73;;;1.70;;
25435;SDS011;13363;52.772;-3.890;2022-10-16T20:28:15;4.17;;;1.10;;
25435;SDS011;13363;52.772;-3.890;2022-10-16T20:30:44;2.27;;;1.03;;
25435;SDS011;13363;52.772;-3.890;2022-10-16T20:33:12;4.60;;;1.50;;
25435;SDS011;13363;52.772;-3.890;2022-10-16T20:35:48;4.43;;;1.53;;
25435;SDS011;13363;52.772;-3.890;2022-10-16T20:38:15;4.40;;;1.40;;
25435;SDS011;13363;52.772;-3.890;2022-10-16T20:40:46;3.50;;;1.40;;
25435;SDS011;13363;52.772;-3.890;2022-10-16T20:43:13;3.60;;;1.13;;
25435;SDS011;13363;52.772;-3.890;2022-10-16T20:45:41;9.33;;;1.50;;
25435;SDS011;13363;52.772;-3.890;2022-10-16T20:48:08;4.90;;;1.30;;
25435;SDS011;13363;52.772;-3.890;2022-10-16T20:50:35;4.83;;;1.57;;
25435;SDS011;13363;52.772;-3.890;2022-10-16T20:53:01;5.33;;;1.73;;
25435;SDS011;13363;52.772;-3.890;2022-10-16T20:55:27;3.13;;;1.53;;
25435;SDS011;13363;52.772;-3.890;2022-10-16T20:57:54;3.50;;;1.80;;
25435;SDS011;13363;52.772;-3.890;2022-10-16T21:00:20;4.43;;;1.87;;
25435;SDS011;13363;52.772;-3.890;2022-10-16T21:02:50;5.47;;;1.50;;
25435;SDS011;13363;52.772;-3.890;2022-10-16T21:05:16;4.00;;;1.90;;
25435;SDS011;13363;52.772;-3.890;2022-10-16T21:07:42;2.83;;;1.50;;
25435;SDS011;13363;52.772;-3.890;2022-10-16T21:10:09;3.33;;;1.40;;
25435;SDS011;13363;52.772;-3.890;2022-10-16T21:12:35;5.83;;;2.00;;
25435;SDS011;13363;52.772;-3.890;2022-10-16T21:15:01;3.27;;;1.40;;
25435;SDS011;13363;52.772;-3.890;2022-10-16T21:17:29;2.13;;;1.30;;
25435;SDS011;13363;52.772;-3.890;2022-10-16T21:19:56;5.93;;;1.43;;
25435;SDS011;13363;52.772;-3.890;2022-10-16T21:22:22;5.03;;;1.60;;
25435;SDS011;13363;52.772;-3.890;2022-10-16T21:24:48;4.53;;;1.40;;
25435;SDS011;13363;52.772;-3.890;2022-10-16T21:27:14;2.33;;;1.27;;
25435;SDS011;13363;52.772;-3.890;2022-10-16T21:29:39;1.77;;;1.27;;
25435;SDS011;13363;52.772;-3.890;2022-10-16T21:32:05;5.60;;;1.50;;
25435;SDS011;13363;52.772;-3.890;2022-10-16T21:34:31;3.00;;;1.27;;
25435;SDS011;13363;52.772;-3.890;2022-10-16T21:36:59;1.93;;;1.10;;
25435;SDS011;13363;52.772;-3.890;2022-10-16T21:39:24;2.13;;;1.27;;
25435;SDS011;13363;52.772;-3.890;2022-10-16T21:41:50;4.33;;;1.10;;
25435;SDS011;13363;52.772;-3.890;2022-10-16T21:44:17;1.27;;;1.10;;
25435;SDS011;13363;52.772;-3.890;2022-10-16T21:46:44;3.80;;;1.10;;
25435;SDS011;13363;52.772;-3.890;2022-10-16T21:49:16;2.97;;;1.30;;
25435;SDS011;13363;52.772;-3.890;2022-10-16T21:51:44;5.67;;;1.50;;
25435;SDS011;13363;52.772;-3.890;2022-10-16T21:54:13;2.87;;;1.60;;
25435;SDS011;13363;52.772;-3.890;2022-10-16T21:56:40;2.67;;;1.77;;
25435;SDS011;13363;52.772;-3.890;2022-10-16T21:59:06;3.97;;;1.60;;
25435;SDS011;13363;52.772;-3.890;2022-10-16T22:01:34;1.97;;;0.73;;
25435;SDS011;13363;52.772;-3.890;2022-10-16T22:04:00;1.00;;;1.00;;
25435;SDS011;13363;52.772;-3.890;2022-10-16T22:06:26;1.27;;;1.00;;
25435;SDS011;13363;52.772;-3.890;2022-10-16T22:08:54;1.10;;;1.00;;
25435;SDS011;13363;52.772;-3.890;2022-10-16T22:11:33;3.00;;;0.83;;
25435;SDS011;13363;52.772;-3.890;2022-10-16T22:14:02;1.67;;;1.40;;
25435;SDS011;13363;52.772;-3.890;2022-10-16T22:16:33;2.93;;;1.67;;
25435;SDS011;13363;52.772;-3.890;2022-10-16T22:18:59;3.67;;;0.60;;
25435;SDS011;13363;52.772;-3.890;2022-10-16T22:21:27;0.80;;;0.80;;
25435;SDS011;13363;52.772;-3.890;2022-10-16T22:23:56;2.67;;;1.60;;
25435;SDS011;13363;52.772;-3.890;2022-10-16T22:26:23;0.57;;;0.57;;
25435;SDS011;13363;52.772;-3.890;2022-10-16T22:28:49;0.87;;;0.57;;
25435;SDS011;13363;52.772;-3.890;2022-10-16T22:31:15;0.93;;;0.50;;
25435;SDS011;13363;52.772;-3.890;2022-10-16T22:33:42;1.23;;;0.83;;
25435;SDS011;13363;52.772;-3.890;2022-10-16T22:36:10;0.63;;;0.63;;
25435;SDS011;13363;52.772;-3.890;2022-10-16T22:38:37;0.50;;;0.50;;
25435;SDS011;13363;52.772;-3.890;2022-10-16T22:41:07;1.70;;;0.70;;
25435;SDS011;13363;52.772;-3.890;2022-10-16T22:43:35;0.50;;;0.50;;
25435;SDS011;13363;52.772;-3.890;2022-10-16T22:46:07;0.73;;;0.43;;
25435;SDS011;13363;52.772;-3.890;2022-10-16T22:48:36;0.30;;;0.30;;
25435;SDS011;13363;52.772;-3.890;2022-10-16T22:51:03;1.73;;;0.50;;
25435;SDS011;13363;52.772;-3.890;2022-10-16T22:53:29;0.90;;;0.50;;
25435;SDS011;13363;52.772;-3.890;2022-10-16T22:55:55;0.67;;;0.40;;
25435;SDS011;13363;52.772;-3.890;2022-10-16T22:58:21;2.30;;;0.70;;
25435;SDS011;13363;52.772;-3.890;2022-10-16T23:00:47;1.07;;;0.53;;
25435;SDS011;13363;52.772;-3.890;2022-10-16T23:03:13;2.77;;;0.70;;
25435;SDS011;13363;52.772;-3.890;2022-10-16T23:05:39;1.53;;;0.60;;
25435;SDS011;13363;52.772;-3.890;2022-10-16T23:08:06;0.83;;;0.70;;
25435;SDS011;13363;52.772;-3.890;2022-10-16T23:10:33;0.63;;;0.60;;
25435;SDS011;13363;52.772;-3.890;2022-10-16T23:12:59;0.80;;;0.67;;
25435;SDS011;13363;52.772;-3.890;2022-10-16T23:15:25;3.57;;;1.03;;
25435;SDS011;13363;52.772;-3.890;2022-10-16T23:17:50;2.80;;;0.67;;
25435;SDS011;13363;52.772;-3.890;2022-10-16T23:20:16;3.63;;;0.90;;
25435;SDS011;13363;52.772;-3.890;2022-10-16T23:22:42;1.17;;;1.17;;
25435;SDS011;13363;52.772;-3.890;2022-10-16T23:25:08;1.80;;;0.90;;
25435;SDS011;13363;52.772;-3.890;2022-10-16T23:27:34;1.77;;;0.70;;
25435;SDS011;13363;52.772;-3.890;2022-10-16T23:29:59;3.60;;;0.87;;
25435;SDS011;13363;52.772;-3.890;2022-10-16T23:32:25;1.77;;;0.73;;
25435;SDS011;13363;52.772;-3.890;2022-10-16T23:34:51;2.80;;;1.30;;
25435;SDS011;13363;52.772;-3.890;2022-10-16T23:37:17;5.17;;;1.23;;
25435;SDS011;13363;52.772;-3.890;2022-10-16T23:39:43;3.47;;;1.00;;
25435;SDS011;13363;52.772;-3.890;2022-10-16T23:42:09;4.03;;;1.07;;
25435;SDS011;13363;52.772;-3.890;2022-10-16T23:44:34;4.00;;;1.50;;
25435;SDS011;13363;52.772;-3.890;2022-10-16T23:47:01;2.87;;;1.07;;
25435;SDS011;13363;52.772;-3.890;2022-10-16T23:49:27;1.63;;;1.27;;
25435;SDS011;13363;52.772;-3.890;2022-10-16T23:51:53;3.23;;;1.13;;
25435;SDS011;13363;52.772;-3.890;2022-10-16T23:54:19;4.50;;;1.60;;
25435;SDS011;13363;52.772;-3.890;2022-10-16T23:56:45;4.67;;;1.43;;
25435;SDS011;13363;52.772;-3.890;2022-10-16T23:59:11;6.77;;;1.53;;
